Latest Coastal Weather Observations for Burnie Port

IDT60701

Issued at 4:21 pm EST Sunday 26 April 2015 (issued every 10 minutes, with the page automatically refreshed every 10 minutes)

About coastal observations | Map of coastal stations | Coastal observations for TAS | Marine services | Other Formats
Station Details ID: 091344 Name: BURNIE NTC AWS Lat: -41.05 Lon: 145.91 Height: 0.0 m
Data from the previous 72 hours. | See also: Recent months for locations in Tasmania
Date/Time
EST
Temp

°C
Wind Pressure Rain
since 9am
mm
Weather Cloud Vis
km
Sea
Height
m
Swell
Dir
 
Speed
knots
Gust
knots
hPa Trend Height
m
Period
s
Dir
26/04:00pm 14.0 WSW 9 19 1013.6 - - - - - - - - -
26/03:30pm 14.5 WSW 8 13 1013.2 - - - - - - - - -
26/03:00pm 14.0 WSW 12 21 1013.2 - - - - - - - - -
26/02:30pm 14.3 WSW 12 20 1013.1 - - - - - - - - -
26/02:00pm 13.8 SW 11 19 1013.1 - - - - - - - - -
26/01:30pm 13.9 WSW 9 22 1013.2 - - - - - - - - -
26/01:00pm 13.8 WSW 9 17 1013.0 - - - - - - - - -
26/12:30pm 13.8 WSW 10 17 1013.4 - - - - - - - - -
26/12:00pm 13.7 WSW 9 15 1013.6 - - - - - - - - -
26/11:30am 13.7 SW 7 14 1014.0 - - - - - - - - -
26/11:00am 13.0 WSW 11 20 1014.3 - - - - - - - - -
26/10:30am 12.6 SW 8 15 1014.3 - - - - - - - - -
26/10:00am 12.0 SSW 11 18 1014.5 - - - - - - - - -
26/09:30am 11.6 SW 10 17 1014.5 - - - - - - - - -
26/09:00am 11.0 SSW 11 21 1014.6 - - - - - - - - -
26/08:30am 10.5 SW 10 17 1014.6 - - - - - - - - -
26/08:00am 10.2 SW 8 12 1014.4 - - - - - - - - -
26/07:30am 9.8 SW 8 14 1013.9 - - - - - - - - -
26/07:00am 9.7 SW 8 14 1013.3 - - - - - - - - -
26/06:30am 9.7 SSW 11 18 1012.9 - - - - - - - - -
26/06:00am 9.9 SSW 13 19 1012.6 - - - - - - - - -
26/05:30am 10.1 SSW 16 24 1012.4 - - - - - - - - -
26/05:00am 10.1 SSW 16 24 1012.3 - - - - - - - - -
26/04:30am 10.2 SSW 13 19 1012.2 - - - - - - - - -
26/04:00am 10.2 SSW 13 18 1012.1 - - - - - - - - -
26/03:30am 10.5 SSW 11 17 1012.0 - - - - - - - - -
26/03:00am 11.0 SSW 12 15 1012.1 - - - - - - - - -
26/02:30am 11.4 SSW 11 15 1012.1 - - - - - - - - -
26/02:00am 11.6 SSW 11 14 1012.1 - - - - - - - - -
26/01:30am 11.7 SSW 11 14 1012.2 - - - - - - - - -
26/01:00am 11.6 SSW 9 13 1012.2 - - - - - - - - -
26/12:30am 11.6 SSW 9 12 1012.1 - - - - - - - - -
26/12:00am 11.7 SSW 8 12 1011.9 - - - - - - - - -
 
Date/Time
EST
Temp

°C
Wind Pressure Rain
since 9am
mm
Weather Cloud Vis
km
Sea
Height
m
Swell
Dir
 
Speed
knots
Gust
knots
hPa Trend Height
m
Period
s
Dir
25/11:30pm 11.6 SSW 11 15 1011.7 - - - - - - - - -
25/11:00pm 11.7 SSW 11 14 1011.6 - - - - - - - - -
25/10:30pm 12.1 SSW 9 13 1011.5 - - - - - - - - -
25/10:00pm 12.2 SSW 10 15 1011.5 - - - - - - - - -
25/09:30pm 12.4 SSW 12 16 1011.4 - - - - - - - - -
25/09:00pm 12.4 SSW 12 16 1011.3 - - - - - - - - -
25/08:30pm 12.4 SSW 12 16 1011.1 - - - - - - - - -
25/08:00pm 12.6 SSW 12 18 1011.0 - - - - - - - - -
25/07:30pm 13.1 SSW 11 15 1010.9 - - - - - - - - -
25/07:00pm 13.7 SW 9 12 1010.6 - - - - - - - - -
25/06:30pm 15.0 SW 6 14 1010.3 - - - - - - - - -
25/06:00pm 15.8 W 4 5 1009.8 - - - - - - - - -
25/05:30pm 15.9 NW 6 7 1009.4 - - - - - - - - -
25/05:00pm 15.8 NW 5 6 1009.1 - - - - - - - - -
25/04:30pm 16.0 NW 5 6 1009.0 - - - - - - - - -
25/04:00pm 15.9 NNW 4 5 1008.8 - - - - - - - - -
25/03:30pm 16.0 N 4 6 1008.7 - - - - - - - - -
25/03:00pm 16.1 NNE 5 6 1008.5 - - - - - - - - -
25/02:30pm 16.2 NE 5 6 1008.3 - - - - - - - - -
25/02:00pm 16.0 NE 7 8 1008.1 - - - - - - - - -
25/01:30pm 16.0 ENE 5 8 1008.1 - - - - - - - - -
25/01:00pm 15.8 E 7 10 1008.0 - - - - - - - - -
25/12:30pm 15.7 E 9 10 1008.1 - - - - - - - - -
25/12:00pm 15.6 E 9 11 1008.2 - - - - - - - - -
25/11:30am 15.4 ESE 11 12 1008.1 - - - - - - - - -
25/11:00am 15.2 ESE 11 14 1008.0 - - - - - - - - -
25/10:30am 15.4 SE 8 12 1008.0 - - - - - - - - -
25/10:00am 15.1 SSE 6 9 1007.9 - - - - - - - - -
25/09:30am 14.3 S 6 7 1007.8 - - - - - - - - -
25/09:00am 13.7 SSE 8 10 1007.6 - - - - - - - - -
25/08:30am 13.0 S 11 13 1007.4 - - - - - - - - -
25/08:00am 13.0 S 11 14 1007.3 - - - - - - - - -
25/07:30am 12.9 SSW 9 13 1006.7 - - - - - - - - -
25/07:00am 12.5 SSW 8 10 1006.3 - - - - - - - - -
25/06:30am 12.4 SSW 8 11 1005.8 - - - - - - - - -
25/06:00am 12.6 SSW 9 11 1005.4 - - - - - - - - -
25/05:30am 12.6 SSW 7 9 1005.0 - - - - - - - - -
25/05:00am 12.8 SSW 9 13 1004.8 - - - - - - - - -
25/04:30am 12.6 SSW 8 11 1004.5 - - - - - - - - -
25/04:00am 12.7 SSW 8 11 1004.4 - - - - - - - - -
25/03:30am 12.4 SSE 6 8 1004.3 - - - - - - - - -
25/03:00am 12.1 S 4 5 1004.3 - - - - - - - - -
25/02:30am 12.8 SSW 9 12 1004.1 - - - - - - - - -
25/02:00am 12.8 SSW 7 10 1004.0 - - - - - - - - -
25/01:30am 12.8 SSW 7 9 1003.8 - - - - - - - - -
25/01:00am 13.2 SSW 6 9 1003.8 - - - - - - - - -
25/12:30am 13.5 SSW 5 7 1003.9 - - - - - - - - -
25/12:00am 13.4 SSW 2 4 1003.8 - - - - - - - - -
 
Date/Time
EST
Temp

°C
Wind Pressure Rain
since 9am
mm
Weather Cloud Vis
km
Sea
Height
m
Swell
Dir
 
Speed
knots
Gust
knots
hPa Trend Height
m
Period
s
Dir
24/11:30pm 13.5 S 7 9 1003.5 - - - - - - - - -
24/11:00pm 13.7 SSW 8 11 1003.3 - - - - - - - - -
24/10:30pm 13.7 S 5 7 1003.3 - - - - - - - - -
24/10:00pm 13.6 WSW 2 4 1003.1 - - - - - - - - -
24/09:30pm 13.9 WNW 3 5 1003.2 - - - - - - - - -
24/09:00pm 14.0 WNW 5 7 1003.2 - - - - - - - - -
24/08:30pm 13.9 WNW 6 9 1003.0 - - - - - - - - -
24/08:00pm 13.9 NW 6 7 1002.8 - - - - - - - - -
24/07:30pm 14.1 NW 4 5 1002.5 - - - - - - - - -
24/07:00pm 14.0 SSW 2 3 1002.1 - - - - - - - - -
24/06:30pm 14.0 SSW 4 6 1001.8 - - - - - - - - -
24/06:00pm 14.0 SW 4 5 1001.7 - - - - - - - - -
24/05:30pm 13.9 SSW 4 6 1001.5 - - - - - - - - -
24/05:00pm 13.9 W 4 5 1001.8 - - - - - - - - -
24/04:30pm 14.1 NNW 4 5 1001.8 - - - - - - - - -
24/04:00pm 14.2 NW 4 5 1002.0 - - - - - - - - -
24/03:30pm 14.3 CALM 0 0 1002.0 - - - - - - - - -
24/03:00pm 14.3 SE 2 4 1001.8 - - - - - - - - -
24/02:30pm 14.3 E 3 5 1001.7 - - - - - - - - -
24/02:00pm 14.3 E 3 4 1001.7 - - - - - - - - -
24/01:30pm 14.3 ESE 4 4 1001.7 - - - - - - - - -
24/01:00pm 14.4 ESE 5 6 1002.2 - - - - - - - - -
24/12:30pm 14.2 E 5 6 1002.8 - - - - - - - - -
24/12:00pm 13.9 E 6 8 1003.1 - - - - - - - - -
24/11:30am 13.7 E 7 9 1003.5 - - - - - - - - -
24/11:00am 13.5 ESE 6 7 1003.9 - - - - - - - - -
24/10:30am 13.5 ESE 4 6 1004.1 - - - - - - - - -
24/10:00am 13.3 SE 6 7 1004.0 - - - - - - - - -
24/09:30am 13.3 ESE 4 5 1004.4 - - - - - - - - -
24/09:00am 13.2 ESE 4 5 1004.5 - - - - - - - - -
24/08:30am 12.9 SSE 5 6 1004.6 - - - - - - - - -
24/08:00am 12.8 SSE 4 5 1005.0 - - - - - - - - -
24/07:30am 12.8 SSW 2 3 1005.0 - - - - - - - - -
24/07:00am 12.8 SSE 4 5 1005.1 - - - - - - - - -
24/06:30am 12.7 N 1 2 1005.2 - - - - - - - - -
24/06:00am 12.5 SSE 5 6 1005.4 - - - - - - - - -
24/05:30am 12.9 SW 2 3 1005.7 - - - - - - - - -
24/05:00am 13.2 WSW 1 2 1006.0 - - - - - - - - -
24/04:30am 13.3 CALM 0 1 1006.1 - - - - - - - - -
24/04:00am 13.8 S 5 6 1006.2 - - - - - - - - -
24/03:30am 13.9 S 4 4 1006.6 - - - - - - - - -
24/03:00am 14.2 S 3 4 1007.1 - - - - - - - - -
24/02:30am 14.1 S 2 3 1007.6 - - - - - - - - -

Other Formats:

Comma delimited format used in spreadsheet applications
http://www.bom.gov.au/fwo/IDT60701/IDT60701.95963.axf

JavaScript Object Notation format (JSON) in row-major order
http://www.bom.gov.au/fwo/IDT60701/IDT60701.95963.json